createdAt,value
2017-10-09T00:01:55.628Z,10.84
2017-10-09T00:03:57.103Z,10.84
2017-10-09T00:05:58.510Z,10.84
2017-10-09T00:07:59.951Z,10.81
2017-10-09T00:10:02.013Z,10.73
2017-10-09T00:12:03.434Z,10.78
2017-10-09T00:14:04.859Z,10.74
2017-10-09T00:16:06.450Z,10.66
2017-10-09T00:18:07.863Z,10.71
2017-10-09T00:20:09.288Z,10.74
2017-10-09T00:22:10.727Z,10.70
2017-10-09T00:24:12.223Z,10.65
2017-10-09T00:26:13.803Z,10.62
2017-10-09T00:28:15.314Z,10.71
2017-10-09T00:30:16.781Z,10.70
2017-10-09T00:32:18.221Z,10.60
2017-10-09T00:34:19.630Z,10.55
2017-10-09T00:36:21.048Z,10.62
2017-10-09T00:38:22.466Z,10.59
2017-10-09T00:40:23.874Z,10.53
2017-10-09T00:42:25.285Z,10.44
2017-10-09T00:44:26.697Z,10.52
2017-10-09T00:46:28.105Z,10.47
2017-10-09T00:48:29.517Z,10.44
2017-10-09T00:50:30.996Z,10.51
2017-10-09T00:52:32.417Z,10.53
2017-10-09T00:54:33.829Z,10.47
2017-10-09T00:56:35.245Z,10.55
2017-10-09T00:58:36.729Z,10.52
2017-10-09T01:00:38.147Z,10.42
2017-10-09T01:02:39.561Z,10.34
2017-10-09T01:04:40.969Z,10.42
2017-10-09T01:06:42.379Z,10.37
2017-10-09T01:08:43.923Z,10.36
2017-10-09T01:10:45.337Z,10.32
2017-10-09T01:12:46.757Z,10.22
2017-10-09T01:14:48.281Z,10.36
2017-10-09T01:16:49.713Z,10.25
2017-10-09T01:18:51.132Z,10.32
2017-10-09T01:20:52.535Z,10.28
2017-10-09T01:22:53.938Z,10.25
2017-10-09T01:24:55.348Z,10.26
2017-10-09T01:26:56.774Z,10.25
2017-10-09T01:28:58.185Z,10.19
2017-10-09T01:30:59.595Z,10.22
2017-10-09T01:33:01.003Z,10.14
2017-10-09T01:35:02.408Z,10.14
2017-10-09T01:37:03.828Z,10.18
2017-10-09T01:39:05.238Z,10.15
2017-10-09T01:41:06.644Z,10.07
2017-10-09T01:43:08.065Z,10.18
2017-10-09T01:45:09.477Z,10.14
2017-10-09T01:47:10.888Z,10.14
2017-10-09T01:49:12.443Z,10.17
2017-10-09T01:51:13.876Z,10.15
2017-10-09T01:53:15.385Z,10.15
2017-10-09T01:55:16.774Z,10.07
2017-10-09T01:57:18.204Z,10.10
2017-10-09T01:59:19.610Z,10.04
2017-10-09T02:01:21.026Z,9.96
2017-10-09T02:03:22.448Z,10.00
2017-10-09T02:05:23.855Z,10.04
2017-10-09T02:07:25.268Z,10.00
2017-10-09T02:09:26.683Z,10.00
2017-10-09T02:11:28.094Z,9.96
2017-10-09T02:13:29.501Z,9.99
2017-10-09T02:15:30.912Z,9.91
2017-10-09T02:17:32.325Z,9.96
2017-10-09T02:19:33.733Z,10.00
2017-10-09T02:21:35.164Z,9.88
2017-10-09T02:23:36.577Z,9.93
2017-10-09T02:25:37.982Z,9.91
2017-10-09T02:27:39.394Z,9.93
2017-10-09T02:29:40.801Z,9.94
2017-10-09T02:31:42.264Z,9.91
2017-10-09T02:33:43.861Z,9.93
2017-10-09T02:35:45.302Z,9.82
2017-10-09T02:37:47.390Z,9.75
2017-10-09T02:39:48.853Z,9.76
2017-10-09T02:41:50.297Z,9.73
2017-10-09T02:43:51.733Z,9.83
2017-10-09T02:45:53.170Z,9.70
2017-10-09T02:47:54.588Z,9.71
2017-10-09T02:49:56.015Z,9.73
2017-10-09T02:51:57.427Z,9.73
2017-10-09T02:53:58.837Z,9.68
2017-10-09T02:56:00.251Z,9.66
2017-10-09T02:58:01.662Z,9.70
2017-10-09T03:00:03.179Z,9.70
2017-10-09T03:02:04.632Z,9.61
2017-10-09T03:04:06.022Z,9.71
2017-10-09T03:06:07.624Z,9.64
2017-10-09T03:08:09.073Z,9.58
2017-10-09T03:10:10.528Z,9.70
2017-10-09T03:12:12.002Z,9.67
2017-10-09T03:14:13.421Z,9.66
2017-10-09T03:16:14.867Z,9.63
2017-10-09T03:18:57.330Z,9.67
2017-10-09T03:20:58.732Z,9.60
2017-10-09T03:23:00.656Z,9.58
2017-10-09T03:25:02.057Z,9.63
2017-10-09T03:27:03.469Z,9.61
2017-10-09T03:29:05.007Z,9.61
2017-10-09T03:31:06.424Z,9.60
2017-10-09T03:33:07.826Z,9.63
2017-10-09T03:35:09.242Z,9.66
2017-10-09T03:37:10.653Z,9.67
2017-10-09T03:39:12.063Z,9.61
2017-10-09T03:41:13.480Z,9.58
2017-10-09T03:43:14.891Z,9.52
2017-10-09T03:45:16.332Z,9.60
2017-10-09T03:47:17.752Z,9.61
2017-10-09T03:49:19.154Z,9.60
2017-10-09T03:51:20.681Z,9.68
2017-10-09T03:53:22.232Z,9.61
2017-10-09T03:55:23.699Z,9.66
2017-10-09T03:57:25.116Z,9.61
2017-10-09T03:59:26.713Z,9.70
2017-10-09T04:01:28.149Z,9.64
2017-10-09T04:03:29.561Z,9.64
2017-10-09T04:05:30.966Z,9.71
2017-10-09T04:07:32.374Z,9.66
2017-10-09T04:09:33.865Z,9.61
2017-10-09T04:11:35.328Z,9.58
2017-10-09T04:13:36.735Z,9.64
2017-10-09T04:15:38.144Z,9.57
2017-10-09T04:17:39.798Z,9.49
2017-10-09T04:19:41.189Z,9.49
2017-10-09T04:21:42.845Z,9.43
2017-10-09T04:23:44.499Z,9.45
2017-10-09T04:25:46.051Z,9.31
2017-10-09T04:27:47.467Z,9.27
2017-10-09T04:29:48.879Z,9.23
2017-10-09T04:31:50.291Z,9.38
2017-10-09T04:33:51.697Z,9.32
2017-10-09T04:35:53.108Z,9.25
2017-10-09T04:37:54.589Z,9.20
2017-10-09T04:39:56.038Z,9.23
2017-10-09T04:41:57.669Z,9.25
2017-10-09T04:43:59.106Z,9.24
2017-10-09T04:46:00.679Z,9.31
2017-10-09T04:48:02.134Z,9.43
2017-10-09T04:50:03.568Z,9.43
2017-10-09T04:52:05.008Z,9.38
2017-10-09T04:54:06.776Z,9.24
2017-10-09T04:56:08.238Z,9.32
2017-10-09T04:58:09.692Z,9.25
2017-10-09T05:00:11.284Z,9.31
2017-10-09T05:02:12.728Z,9.45
2017-10-09T05:04:14.285Z,9.45
2017-10-09T05:06:15.740Z,9.38
2017-10-09T05:08:17.285Z,9.32
2017-10-09T05:10:18.822Z,9.15
2017-10-09T05:12:20.302Z,9.15
2017-10-09T05:14:21.718Z,9.15
2017-10-09T05:16:23.128Z,9.02
2017-10-09T05:18:24.534Z,9.04
2017-10-09T05:20:25.945Z,9.01
2017-10-09T05:22:27.493Z,9.04
2017-10-09T05:24:28.901Z,9.10
2017-10-09T05:26:30.482Z,9.23
2017-10-09T05:28:31.891Z,9.21
2017-10-09T05:30:33.317Z,9.21
2017-10-09T05:32:34.724Z,9.23
2017-10-09T05:34:36.129Z,9.38
2017-10-09T05:36:37.637Z,9.42
2017-10-09T05:38:39.057Z,9.53
2017-10-09T05:40:40.464Z,9.58
2017-10-09T05:42:41.873Z,9.63
2017-10-09T05:44:43.489Z,9.60
2017-10-09T05:46:44.905Z,9.61
2017-10-09T05:48:46.482Z,9.58
2017-10-09T05:50:47.882Z,9.43
2017-10-09T05:52:49.295Z,9.35
2017-10-09T05:54:50.890Z,9.23
2017-10-09T05:56:52.300Z,9.21
2017-10-09T05:58:53.712Z,9.25
2017-10-09T06:00:55.131Z,9.18
2017-10-09T06:02:56.540Z,9.16
2017-10-09T06:04:58.086Z,9.10
2017-10-09T06:06:59.495Z,9.16
2017-10-09T06:09:00.906Z,9.20
2017-10-09T06:11:02.314Z,9.35
2017-10-09T06:13:03.773Z,9.27
2017-10-09T06:15:05.185Z,9.35
2017-10-09T06:17:06.598Z,9.21
2017-10-09T06:19:08.778Z,9.23
2017-10-09T06:21:10.211Z,9.15
2017-10-09T06:23:11.619Z,9.04
2017-10-09T06:25:13.030Z,9.02
2017-10-09T06:27:14.595Z,9.02
2017-10-09T06:29:16.026Z,9.13
2017-10-09T06:31:17.432Z,9.27
2017-10-09T06:33:18.841Z,9.18
2017-10-09T06:35:20.251Z,9.20
2017-10-09T06:37:21.684Z,9.12
2017-10-09T06:39:23.075Z,9.16
2017-10-09T06:41:24.503Z,9.30
2017-10-09T06:43:25.915Z,9.23
2017-10-09T06:45:27.579Z,9.23
2017-10-09T06:47:29.065Z,9.40
2017-10-09T06:49:30.481Z,9.32
2017-10-09T06:51:31.892Z,9.35
2017-10-09T06:53:33.309Z,9.35
2017-10-09T06:55:34.939Z,9.49
2017-10-09T06:57:36.372Z,9.57
2017-10-09T06:59:38.055Z,9.66
2017-10-09T07:01:39.470Z,9.75
2017-10-09T07:03:40.885Z,9.75
2017-10-09T07:05:42.382Z,9.73
2017-10-09T07:07:43.786Z,9.68
2017-10-09T07:09:45.201Z,9.71
2017-10-09T07:11:46.618Z,9.71
2017-10-09T07:13:48.032Z,9.70
2017-10-09T07:15:49.443Z,9.67
2017-10-09T07:17:50.878Z,9.73
2017-10-09T07:19:52.339Z,9.78
2017-10-09T07:21:53.785Z,9.76
2017-10-09T07:23:55.254Z,9.78
2017-10-09T07:25:56.729Z,9.97
2017-10-09T07:27:58.174Z,10.01
2017-10-09T07:29:59.623Z,10.09
2017-10-09T07:32:01.166Z,10.28
2017-10-09T07:34:02.973Z,10.36
2017-10-09T07:36:05.073Z,10.32
2017-10-09T07:38:06.551Z,10.40
2017-10-09T07:40:08.058Z,10.40
2017-10-09T07:42:09.529Z,10.47
2017-10-09T07:44:10.958Z,10.58
2017-10-09T07:46:12.418Z,10.53
2017-10-09T07:48:13.862Z,10.60
2017-10-09T07:50:15.407Z,10.58
2017-10-09T07:52:16.865Z,10.55
2017-10-09T07:54:18.331Z,10.46
2017-10-09T07:56:19.873Z,10.40
2017-10-09T07:58:21.440Z,10.25
2017-10-09T08:00:22.868Z,10.42
2017-10-09T08:02:24.288Z,10.44
2017-10-09T08:04:25.977Z,10.39
2017-10-09T08:06:27.433Z,10.47
2017-10-09T08:08:28.944Z,10.46
2017-10-09T08:10:30.421Z,10.56
2017-10-09T08:12:31.960Z,10.60
2017-10-09T08:14:33.417Z,10.56
2017-10-09T08:16:34.937Z,10.46
2017-10-09T08:18:36.400Z,10.43
2017-10-09T08:20:37.857Z,10.56
2017-10-09T08:22:39.307Z,10.76
2017-10-09T08:24:40.872Z,10.81
2017-10-09T08:26:42.322Z,10.73
2017-10-09T08:28:43.881Z,10.76
2017-10-09T08:30:45.438Z,10.86
2017-10-09T08:32:46.878Z,10.89
2017-10-09T08:34:48.411Z,11.10
2017-10-09T08:36:49.855Z,11.19
2017-10-09T08:38:51.271Z,11.25
2017-10-09T08:40:52.685Z,11.31
2017-10-09T08:42:54.102Z,11.43
2017-10-09T08:44:55.517Z,11.46
2017-10-09T08:46:56.936Z,11.59
2017-10-09T08:48:58.432Z,11.65
2017-10-09T08:50:59.881Z,11.67
2017-10-09T08:53:01.338Z,11.67
2017-10-09T08:55:02.755Z,11.65
2017-10-09T08:57:04.178Z,11.52
2017-10-09T08:59:05.611Z,11.54
2017-10-09T09:01:07.021Z,11.47
2017-10-09T09:03:08.506Z,11.46
2017-10-09T09:05:09.921Z,11.46
2017-10-09T09:07:11.336Z,11.43
2017-10-09T09:09:12.751Z,11.46
2017-10-09T09:11:14.171Z,11.59
2017-10-09T09:13:15.585Z,11.68
2017-10-09T09:15:17.004Z,11.70
2017-10-09T09:17:18.420Z,11.80
2017-10-09T09:19:19.863Z,12.01
2017-10-09T09:21:21.290Z,12.06
2017-10-09T09:23:22.705Z,12.23
2017-10-09T09:25:24.122Z,12.30
2017-10-09T09:27:25.897Z,12.42
2017-10-09T09:29:27.243Z,12.49
2017-10-09T09:31:28.660Z,12.49
2017-10-09T09:33:30.074Z,12.60
2017-10-09T09:35:31.582Z,12.56
2017-10-09T09:37:33.031Z,12.60
2017-10-09T09:39:34.645Z,12.54
2017-10-09T09:41:36.055Z,12.67
2017-10-09T09:43:37.474Z,12.63
2017-10-09T09:45:38.891Z,12.71
2017-10-09T09:47:40.312Z,12.77
2017-10-09T09:49:41.749Z,12.71
2017-10-09T09:51:43.160Z,12.71
2017-10-09T09:53:44.581Z,12.85
2017-10-09T09:55:46.009Z,12.93
2017-10-09T09:57:47.491Z,13.02
2017-10-09T09:59:48.910Z,12.95
2017-10-09T10:01:50.341Z,13.11
2017-10-09T10:03:51.760Z,13.14
2017-10-09T10:05:53.180Z,13.22
2017-10-09T10:07:54.599Z,13.22
2017-10-09T10:09:56.017Z,13.20
2017-10-09T10:11:57.455Z,13.15
2017-10-09T10:13:58.871Z,13.03
2017-10-09T10:16:00.367Z,13.06
2017-10-09T10:18:01.783Z,13.22
2017-10-09T10:20:03.283Z,13.17
2017-10-09T10:22:04.734Z,13.30
2017-10-09T10:24:06.221Z,13.33
2017-10-09T10:26:07.650Z,13.59
2017-10-09T10:28:09.076Z,13.46
2017-10-09T10:30:10.536Z,13.59
2017-10-09T10:32:11.955Z,13.70
2017-10-09T10:34:13.382Z,13.79
2017-10-09T10:36:14.802Z,13.69
2017-10-09T10:38:16.230Z,13.65
2017-10-09T10:40:17.655Z,13.76
2017-10-09T10:42:19.075Z,13.74
2017-10-09T10:44:20.495Z,13.79
2017-10-09T10:46:21.909Z,13.71
2017-10-09T10:48:23.327Z,13.49
2017-10-09T10:50:24.742Z,13.47
2017-10-09T10:52:26.168Z,13.52
2017-10-09T10:54:27.585Z,13.62
2017-10-09T10:56:28.997Z,13.59
2017-10-09T10:58:30.422Z,13.56
2017-10-09T11:00:31.840Z,13.59
2017-10-09T11:02:33.264Z,13.55
2017-10-09T11:04:34.688Z,13.59
2017-10-09T11:06:36.107Z,13.58
2017-10-09T11:08:37.524Z,13.59
2017-10-09T11:10:38.940Z,13.63
2017-10-09T11:12:40.360Z,13.81
2017-10-09T11:14:41.779Z,13.79
2017-10-09T11:16:43.189Z,13.70
2017-10-09T11:18:44.621Z,13.80
2017-10-09T11:20:46.110Z,13.79
2017-10-09T11:22:47.606Z,13.74
2017-10-09T11:24:49.053Z,13.71
2017-10-09T11:26:50.467Z,13.59
2017-10-09T11:28:51.884Z,13.56
2017-10-09T11:30:53.311Z,13.67
2017-10-09T11:32:54.732Z,13.65
2017-10-09T11:34:56.152Z,13.74
2017-10-09T11:36:57.567Z,13.84
2017-10-09T11:38:58.986Z,13.88
2017-10-09T11:41:00.404Z,13.92
2017-10-09T11:43:01.822Z,13.91
2017-10-09T11:45:03.259Z,13.96
2017-10-09T11:47:04.674Z,13.94
2017-10-09T11:49:06.156Z,14.07
2017-10-09T11:51:07.565Z,14.06
2017-10-09T11:53:08.988Z,14.16
2017-10-09T11:55:10.426Z,14.19
2017-10-09T11:57:11.863Z,14.17
2017-10-09T11:59:13.296Z,14.17
2017-10-09T12:01:14.717Z,14.10
2017-10-09T12:03:16.149Z,14.14
2017-10-09T12:05:17.574Z,14.20
2017-10-09T12:07:18.989Z,14.29
2017-10-09T12:09:20.411Z,14.32
2017-10-09T12:11:21.830Z,14.39
2017-10-09T12:13:24.165Z,14.57
2017-10-09T12:15:25.591Z,14.64
2017-10-09T12:17:27.222Z,14.72
2017-10-09T12:19:28.612Z,14.78
2017-10-09T12:21:30.028Z,14.90
2017-10-09T12:23:31.448Z,15.19
2017-10-09T12:25:32.879Z,15.19
2017-10-09T12:27:34.299Z,15.01
2017-10-09T12:29:35.876Z,14.87
2017-10-09T12:31:37.310Z,15.05
2017-10-09T12:33:38.727Z,14.91
2017-10-09T12:35:40.179Z,14.86
2017-10-09T12:37:41.730Z,15.12
2017-10-09T12:39:43.162Z,15.33
2017-10-09T12:41:44.595Z,15.31
2017-10-09T12:43:46.303Z,15.45
2017-10-09T12:45:47.717Z,15.52
2017-10-09T12:47:49.144Z,15.70
2017-10-09T12:49:50.620Z,15.89
2017-10-09T12:51:52.048Z,15.82
2017-10-09T12:53:53.476Z,15.79
2017-10-09T12:55:54.896Z,15.81
2017-10-09T12:57:56.314Z,15.74
2017-10-09T12:59:57.737Z,15.63
2017-10-09T13:01:59.159Z,15.59
2017-10-09T13:04:00.582Z,15.39
2017-10-09T13:06:02.001Z,15.35
2017-10-09T13:08:03.424Z,15.35
2017-10-09T13:10:04.865Z,15.35
2017-10-09T13:12:06.279Z,15.23
2017-10-09T13:14:07.699Z,15.01
2017-10-09T13:16:09.146Z,14.95
2017-10-09T13:18:10.563Z,14.98
2017-10-09T13:20:11.988Z,14.99
2017-10-09T13:22:13.405Z,14.87
2017-10-09T13:24:14.828Z,14.99
2017-10-09T13:26:16.248Z,15.09
2017-10-09T13:28:17.673Z,15.12
2017-10-09T13:30:19.376Z,15.12
2017-10-09T13:32:20.796Z,15.31
2017-10-09T13:34:22.215Z,15.28
2017-10-09T13:36:23.673Z,15.46
2017-10-09T13:38:25.136Z,15.39
2017-10-09T13:40:26.551Z,15.38
2017-10-09T13:42:28.150Z,15.30
2017-10-09T13:44:29.980Z,15.21
2017-10-09T13:46:31.419Z,15.19
2017-10-09T13:48:32.839Z,15.11
2017-10-09T13:50:34.253Z,15.12
2017-10-09T13:52:35.693Z,15.08
2017-10-09T13:54:37.117Z,15.05
2017-10-09T13:56:38.547Z,15.02
2017-10-09T13:58:39.971Z,15.01
2017-10-09T14:00:41.387Z,15.06
2017-10-09T14:02:42.812Z,15.02
2017-10-09T14:04:44.223Z,15.13
2017-10-09T14:06:45.646Z,15.06
2017-10-09T14:08:47.066Z,15.06
2017-10-09T14:10:48.501Z,15.02
2017-10-09T14:12:49.924Z,14.98
2017-10-09T14:14:51.341Z,14.88
2017-10-09T14:16:52.763Z,14.95
2017-10-09T14:18:54.231Z,14.99
2017-10-09T14:20:55.659Z,14.87
2017-10-09T14:22:57.152Z,14.87
2017-10-09T14:24:58.656Z,14.94
2017-10-09T14:27:00.126Z,14.95
2017-10-09T14:29:01.586Z,14.91
2017-10-09T14:31:03.048Z,14.88
